Loading…
Loading…
Loading…
Loading…
Loading parcel record…
Plumsted, NJ·Ocean County
Owner email, phone, and authorized agent are available on Pro.
| Date | Price | Book / Page | Verified by |
|---|---|---|---|
| 9/29/2017 | $10 | 17057 / 1462 | Tax assessor |
| 5/15/2013 | $1 | 15537 / 232 | Tax assessor |
| 8/18/1997 | $208,000 | 5513 / 892 | Tax assessor |
Activity captured from the county clerk's daily feed. Includes deeds, mortgages, and other recorded filings.
| Date | Type | Grantor | Grantee | Book / Page | Instrument |
|---|---|---|---|---|---|
| 2026-03-13 | MORTGAGE | — | — | 20310 / 1926 | 2026019773 |
| 2026-03-13 | DEED | — | — | 20310 / 1919 | 2026019772 |
| 2026-02-25 | NOTICE OF SETTLEMENT DOUBLE TRANSACTION | — | — | 20293 / 427 | 2026014490 |
| 2026-02-25 | NOTICE OF SETTLEMENT DOUBLE TRANSACTION | — | — | 20293 / 425 | 2026014489 |
| 2025-08-07 | NOTICE OF LIS PENDING RECORDED | — | — | 20094 / 1947 | 2025060909 |
| 2024-06-07 | MORTGAGE | — | — | 19704 / 1592 | 2024041700 |
| 2023-06-27 | UCC TERMINATION | — | — | 19415 / 577 | 2023047638 |
| 2023-03-29 | LEASE | — | — | 19337 / 1573 | 2023023646 |
| 2023-03-29 | MORTGAGE | — | — | 19337 / 1540 | 2023023645 |
| 2023-03-29 | DEED | — | — | 19337 / 1531 | 2023023644 |
| 2023-02-10 | DISCHARGE OF LEASE | — | — | 19298 / 1726 | 2023010853 |
| 2022-11-09 | DEED | — | — | 19220 / 1627 | 2022117477 |
| 2022-11-01 | NOTICE OF SETTLEMENT | — | — | 19212 / 849 | 2022114837 |
| 2022-11-01 | NOTICE OF SETTLEMENT | — | — | 19212 / 846 | 2022114836 |
| 2022-10-11 | NOTICE OF SETTLEMENT | — | — | 19192 / 1003 | 2022108384 |
| 2022-09-29 | MORTGAGE | — | — | 19181 / 460 | 2022104918 |
| 2022-09-29 | DEED | — | — | 19181 / 453 | 2022104917 |
| 2022-08-12 | NOTICE OF SETTLEMENT DOUBLE TRANSACTION | — | — | 19132 / 1348 | 2022089474 |
| 2022-08-05 | MORTGAGE | — | — | 19124 / 1478 | 2022087014 |
| 2022-08-05 | DEED | — | — | 19124 / 1471 | 2022087013 |
| 2022-06-21 | MORTGAGE | — | — | 19073 / 1570 | 2022070641 |
| 2022-02-08 | MORTGAGE | — | — | 18898 / 1406 | 2022016051 |
| 2022-02-08 | DEED | — | — | 18898 / 1400 | 2022016050 |
| 2022-01-26 | MORTGAGE | — | — | 18882 / 775 | 2022010859 |
| 2021-12-15 | MORTGAGE | — | — | 18823 / 618 | 2021177524 |
| 2021-11-30 | DEED | — | — | 18799 / 1992 | 2021170352 |
| 2021-11-30 | NOTICE OF SETTLEMENT DOUBLE TRANSACTION | — | — | 18799 / 1142 | 2021170260 |
| 2021-08-09 | MORTGAGE | — | — | 18621 / 113 | 2021116504 |
| 2021-08-09 | DEED | — | — | 18621 / 108 | 2021116503 |
| 2021-07-13 | NOTICE OF SETTLEMENT | — | — | 18577 / 1164 | 2021103361 |